Time;durP1;ratioP1;P1;durP2;ratioP2;P2;SDS_P1;SDS_P2;PMS_P1;PMS_P2;Temp;Humidity;BMP_temperature;BMP_pressure;BME280_temperature;BME280_humidity;BME280_pressure;Samples;Min_cycle;Max_cycle;Signal;HPM_P1;HPM_P2
2023/06/21 00:01:49;;;;;;;13.18;11.35;;;22.80;99.90;;;;;;5038427;28;20405;-79
2023/06/21 00:04:15;;;;;;;11.35;10.25;;;22.70;99.90;;;;;;5035305;28;20102;-77
2023/06/21 00:06:44;;;;;;;12.65;10.50;;;22.60;99.90;;;;;;5036484;28;20041;-78
2023/06/21 00:09:10;;;;;;;9.38;8.38;;;22.50;99.90;;;;;;5043223;28;20068;-78
2023/06/21 00:11:36;;;;;;;10.00;9.10;;;22.40;99.90;;;;;;5024754;28;20037;-78
2023/06/21 00:14:01;;;;;;;9.85;8.77;;;22.30;99.90;;;;;;5037989;28;20044;-78
2023/06/21 00:16:27;;;;;;;10.70;9.23;;;22.30;99.90;;;;;;5032069;28;20032;-78
2023/06/21 00:18:53;;;;;;;11.07;9.20;;;22.30;99.90;;;;;;5036654;28;20075;-78
2023/06/21 00:21:19;;;;;;;10.80;8.98;;;22.20;99.90;;;;;;5053813;28;20032;-78
2023/06/21 00:23:44;;;;;;;9.88;8.88;;;22.20;99.90;;;;;;5035581;28;20052;-78
2023/06/21 00:26:10;;;;;;;9.20;8.25;;;22.20;99.90;;;;;;5022793;28;20045;-79
2023/06/21 00:28:36;;;;;;;9.25;8.32;;;22.20;99.90;;;;;;5048088;28;20424;-78
2023/06/21 00:31:03;;;;;;;11.05;7.72;;;22.10;99.90;;;;;;5024201;28;20041;-77
2023/06/21 00:33:28;;;;;;;11.38;8.05;;;22.20;99.90;;;;;;5023387;28;20045;-78
2023/06/21 00:35:54;;;;;;;11.85;8.35;;;22.30;99.90;;;;;;5030438;28;20037;-78
2023/06/21 00:38:20;;;;;;;8.70;7.63;;;22.20;99.90;;;;;;5052399;28;20115;-79
2023/06/21 00:40:47;;;;;;;9.25;7.32;;;22.10;99.90;;;;;;5039840;28;20048;-78
2023/06/21 00:43:14;;;;;;;9.30;6.70;;;22.20;99.90;;;;;;5030168;28;20044;-80
2023/06/21 00:45:45;;;;;;;8.40;6.63;;;22.30;99.90;;;;;;5046418;28;20061;-79
2023/06/21 00:48:11;;;;;;;8.93;6.63;;;22.40;99.90;;;;;;5046320;28;20103;-78
2023/06/21 00:50:40;;;;;;;9.15;6.53;;;22.40;99.90;;;;;;5025484;28;20045;-79
2023/06/21 00:53:06;;;;;;;9.73;6.40;;;22.50;99.90;;;;;;5001898;28;20368;-78
2023/06/21 00:55:32;;;;;;;7.97;6.55;;;22.50;99.90;;;;;;5021967;28;20047;-79
2023/06/21 00:57:58;;;;;;;8.75;5.85;;;22.50;99.90;;;;;;5028497;28;20052;-78
2023/06/21 01:00:25;;;;;;;8.10;5.72;;;22.40;99.90;;;;;;5023476;28;20038;-79
2023/06/21 01:02:52;;;;;;;6.72;5.75;;;22.50;99.90;;;;;;5027795;28;20065;-79
2023/06/21 01:05:18;;;;;;;7.53;6.07;;;22.50;99.90;;;;;;5037858;28;20041;-79
2023/06/21 01:08:03;;;;;;;10.30;6.30;;;22.50;99.90;;;;;;5035230;28;20660;-79
2023/06/21 01:10:37;;;;;;;6.88;6.18;;;22.50;99.90;;;;;;5050898;28;20123;-78
2023/06/21 01:13:36;;;;;;;8.73;6.80;;;22.50;99.90;;;;;;5050758;28;20053;-79
2023/06/21 01:16:06;;;;;;;10.82;6.13;;;22.30;99.90;;;;;;5036156;28;20037;-79
2023/06/21 01:18:32;;;;;;;8.77;6.00;;;22.40;99.90;;;;;;5035139;28;20102;-79
2023/06/21 01:20:57;;;;;;;8.27;5.28;;;22.30;99.90;;;;;;5030890;28;20041;-79
2023/06/21 01:23:39;;;;;;;6.57;5.68;;;22.20;99.90;;;;;;5019706;28;20041;-78
2023/06/21 01:26:10;;;;;;;7.30;5.40;;;22.20;99.90;;;;;;5030670;28;20056;-78
2023/06/21 01:29:02;;;;;;;6.43;5.30;;;22.20;99.90;;;;;;5011886;28;20076;-78
2023/06/21 01:31:27;;;;;;;8.63;6.15;;;22.20;99.90;;;;;;5051992;28;20052;-78
2023/06/21 01:33:53;;;;;;;10.05;6.55;;;22.10;99.90;;;;;;5050192;28;20107;-78
2023/06/21 01:36:19;;;;;;;7.78;5.40;;;22.00;99.90;;;;;;5037408;28;20045;-78
2023/06/21 01:38:45;;;;;;;10.38;6.40;;;22.10;99.90;;;;;;5012351;28;20047;-79
2023/06/21 01:41:12;;;;;;;8.15;5.72;;;22.20;99.90;;;;;;5050888;28;20045;-78
2023/06/21 01:43:38;;;;;;;8.70;6.03;;;22.20;99.90;;;;;;5047471;28;20117;-78
2023/06/21 01:46:04;;;;;;;7.00;5.72;;;22.20;99.90;;;;;;5041169;28;20143;-78
2023/06/21 01:48:30;;;;;;;11.60;6.65;;;22.20;99.90;;;;;;5019572;28;20045;-78
2023/06/21 01:50:55;;;;;;;9.68;6.00;;;22.10;99.90;;;;;;5056468;28;20128;-79
2023/06/21 01:53:21;;;;;;;8.70;5.07;;;22.00;99.90;;;;;;5018752;28;20041;-79
2023/06/21 01:55:49;;;;;;;8.30;5.50;;;22.10;99.90;;;;;;5044737;28;20743;-76
2023/06/21 01:58:16;;;;;;;7.30;5.50;;;22.10;99.90;;;;;;5026937;28;20069;-76
2023/06/21 02:00:42;;;;;;;8.43;6.10;;;22.10;99.90;;;;;;5019529;28;20041;-77
2023/06/21 02:03:09;;;;;;;8.38;6.38;;;22.10;99.90;;;;;;5029109;28;20042;-77
2023/06/21 02:05:35;;;;;;;7.55;6.03;;;22.10;99.90;;;;;;5033667;28;20068;-77
2023/06/21 02:08:01;;;;;;;7.20;5.00;;;22.10;99.90;;;;;;5036169;28;20095;-77
2023/06/21 02:10:27;;;;;;;9.70;5.57;;;22.10;99.90;;;;;;5041485;28;20370;-77
2023/06/21 02:12:52;;;;;;;6.88;5.28;;;22.00;99.90;;;;;;5044409;28;20831;-76
2023/06/21 02:15:19;;;;;;;7.10;5.60;;;22.00;99.90;;;;;;5023886;28;20041;-77
2023/06/21 02:17:48;;;;;;;9.38;6.00;;;22.00;99.90;;;;;;5003600;28;20081;-77
2023/06/21 02:20:14;;;;;;;7.90;5.95;;;22.00;99.90;;;;;;5018425;28;20052;-78
2023/06/21 02:22:40;;;;;;;7.28;5.50;;;22.00;99.90;;;;;;5018021;28;20041;-76
2023/06/21 02:25:07;;;;;;;7.60;6.15;;;21.90;99.90;;;;;;5046802;28;20476;-77
2023/06/21 02:27:33;;;;;;;8.20;5.93;;;21.80;99.90;;;;;;5032271;28;20055;-77
2023/06/21 02:29:59;;;;;;;8.63;6.75;;;21.80;99.90;;;;;;5036601;28;20053;-76
2023/06/21 02:32:43;;;;;;;9.75;6.90;;;21.70;99.90;;;;;;5055073;28;20068;-77
2023/06/21 02:35:10;;;;;;;9.95;6.72;;;21.70;99.90;;;;;;5048044;28;20107;-76
2023/06/21 02:37:36;;;;;;;9.20;6.80;;;21.70;99.90;;;;;;5013875;28;20041;-77
2023/06/21 02:40:11;;;;;;;9.18;7.30;;;21.70;99.90;;;;;;5023004;28;20765;-76
2023/06/21 02:42:37;;;;;;;9.52;7.30;;;21.60;99.90;;;;;;5046314;28;20045;-76
2023/06/21 02:45:04;;;;;;;11.90;7.70;;;21.60;99.90;;;;;;5053069;28;20085;-76
2023/06/21 02:47:29;;;;;;;11.48;8.27;;;21.60;99.90;;;;;;5046007;28;20049;-77
2023/06/21 02:49:55;;;;;;;10.30;8.50;;;21.50;99.90;;;;;;5031152;28;20045;-76
2023/06/21 02:52:21;;;;;;;9.82;8.45;;;21.60;99.90;;;;;;5049627;28;20493;-76
2023/06/21 02:54:47;;;;;;;13.27;9.93;;;21.60;99.90;;;;;;5045782;28;20045;-77
2023/06/21 02:57:12;;;;;;;10.93;9.40;;;21.50;99.90;;;;;;5029732;28;20050;-77
2023/06/21 02:59:38;;;;;;;13.88;9.50;;;21.50;99.90;;;;;;5031269;28;20462;-76
2023/06/21 03:02:04;;;;;;;10.40;8.35;;;21.50;99.90;;;;;;5024199;28;20038;-76
2023/06/21 03:04:30;;;;;;;14.10;9.75;;;21.50;99.90;;;;;;5000445;28;20061;-76
2023/06/21 03:06:56;;;;;;;15.80;9.55;;;21.50;99.90;;;;;;5012992;28;20053;-76
2023/06/21 03:09:23;;;;;;;14.13;9.57;;;21.40;99.90;;;;;;5014691;28;20466;-77
2023/06/21 03:11:48;;;;;;;10.43;9.25;;;21.40;99.90;;;;;;5048266;28;20114;-77
2023/06/21 03:14:14;;;;;;;12.18;9.07;;;21.30;99.90;;;;;;5033728;28;20457;-77
2023/06/21 03:16:40;;;;;;;12.55;8.57;;;21.10;99.90;;;;;;5027395;28;20132;-77
2023/06/21 03:19:08;;;;;;;10.10;8.77;;;21.10;99.90;;;;;;5003251;28;20049;-77
2023/06/21 03:21:34;;;;;;;12.60;8.40;;;20.90;99.90;;;;;;5049470;28;20037;-76
2023/06/21 03:24:01;;;;;;;9.80;7.68;;;21.00;99.90;;;;;;5046885;28;20374;-76
2023/06/21 03:26:27;;;;;;;11.05;7.50;;;21.00;99.90;;;;;;5047087;28;20047;-76
2023/06/21 03:28:54;;;;;;;11.50;7.85;;;20.90;99.90;;;;;;5045805;28;20053;-76
2023/06/21 03:31:20;;;;;;;12.75;8.13;;;20.90;99.90;;;;;;5034450;28;20055;-76
2023/06/21 03:33:46;;;;;;;10.95;7.60;;;20.90;99.90;;;;;;5029680;28;20118;-75
2023/06/21 03:36:12;;;;;;;12.15;8.15;;;20.80;99.90;;;;;;5048821;28;20048;-75
2023/06/21 03:38:38;;;;;;;11.43;8.15;;;20.80;99.90;;;;;;5053544;28;20037;-76
2023/06/21 03:41:04;;;;;;;11.48;8.70;;;20.80;99.90;;;;;;5054042;28;20110;-76
2023/06/21 03:43:29;;;;;;;13.82;8.40;;;20.70;99.90;;;;;;5029013;28;20038;-76
2023/06/21 03:45:55;;;;;;;11.48;8.45;;;20.70;99.90;;;;;;5035546;28;20065;-76
2023/06/21 03:48:21;;;;;;;11.82;8.38;;;20.80;99.90;;;;;;5018327;28;20041;-76
2023/06/21 03:50:47;;;;;;;12.35;8.07;;;20.80;99.90;;;;;;5032198;28;20046;-76
2023/06/21 03:53:13;;;;;;;9.15;6.88;;;20.70;99.90;;;;;;5052440;28;20095;-76
2023/06/21 03:55:39;;;;;;;11.90;7.25;;;20.90;99.90;;;;;;5046896;28;20190;-77
2023/06/21 03:58:04;;;;;;;10.45;7.03;;;20.80;99.90;;;;;;5046889;28;20123;-76
2023/06/21 04:00:30;;;;;;;14.48;7.15;;;20.90;99.90;;;;;;5045760;28;20040;-76
2023/06/21 04:02:59;;;;;;;8.52;7.15;;;20.80;99.90;;;;;;5035061;28;20045;-76
2023/06/21 04:05:24;;;;;;;10.77;7.28;;;20.80;99.90;;;;;;5036409;28;20148;-76
2023/06/21 04:07:50;;;;;;;12.70;7.47;;;20.80;99.90;;;;;;5034798;28;20502;-76
2023/06/21 04:10:16;;;;;;;16.95;8.02;;;20.80;99.90;;;;;;5008412;28;20151;-76
2023/06/21 04:12:42;;;;;;;12.90;7.57;;;20.80;99.90;;;;;;5048432;28;20052;-76
2023/06/21 04:15:08;;;;;;;11.10;7.30;;;20.80;99.90;;;;;;5042328;28;20467;-76
2023/06/21 04:17:34;;;;;;;11.23;7.15;;;20.90;99.90;;;;;;5028834;28;20037;-76
2023/06/21 04:19:59;;;;;;;11.15;7.47;;;20.80;99.90;;;;;;5024079;28;20053;-75
2023/06/21 04:22:25;;;;;;;8.98;7.18;;;20.70;99.90;;;;;;5018410;28;20381;-76
2023/06/21 04:24:51;;;;;;;11.77;6.57;;;20.70;99.90;;;;;;5045897;28;20059;-76
2023/06/21 04:27:17;;;;;;;14.95;6.97;;;20.70;99.90;;;;;;5034777;28;20049;-75
2023/06/21 04:29:43;;;;;;;11.95;8.05;;;20.70;99.90;;;;;;5042437;28;20119;-76
2023/06/21 04:32:09;;;;;;;9.93;7.05;;;20.60;99.90;;;;;;5038767;28;20045;-76
2023/06/21 04:34:35;;;;;;;10.40;6.40;;;20.60;99.90;;;;;;5051881;28;20072;-75
2023/06/21 04:37:08;;;;;;;9.70;6.97;;;20.60;99.90;;;;;;5027212;28;20040;-75
2023/06/21 04:39:34;;;;;;;11.02;6.43;;;20.60;99.90;;;;;;5035318;28;20946;-74
2023/06/21 04:42:00;;;;;;;11.68;7.05;;;20.60;99.90;;;;;;5027228;28;20044;-75
2023/06/21 04:44:27;;;;;;;9.60;7.00;;;20.70;99.90;;;;;;5016769;28;20045;-76
2023/06/21 04:46:56;;;;;;;9.85;6.90;;;20.60;99.90;;;;;;5000177;28;20049;-76
2023/06/21 04:49:28;;;;;;;11.25;7.60;;;20.60;99.90;;;;;;5042522;28;20048;-76
2023/06/21 04:51:58;;;;;;;13.07;7.80;;;20.70;99.90;;;;;;5029740;28;20127;-76
2023/06/21 04:54:28;;;;;;;8.25;6.57;;;20.60;99.90;;;;;;5039639;28;20483;-77
2023/06/21 04:56:54;;;;;;;12.43;7.72;;;20.70;99.90;;;;;;5014152;28;20048;-77
2023/06/21 04:59:19;;;;;;;16.35;7.63;;;20.70;99.90;;;;;;5028497;28;20037;-77
2023/06/21 05:01:45;;;;;;;9.75;6.63;;;20.70;99.90;;;;;;5006369;28;20118;-77
2023/06/21 05:04:11;;;;;;;11.77;7.32;;;20.70;99.90;;;;;;5016030;28;20041;-75
2023/06/21 05:06:37;;;;;;;11.75;7.40;;;20.70;99.90;;;;;;5033095;28;20614;-77
2023/06/21 05:09:04;;;;;;;9.90;6.68;;;20.70;99.90;;;;;;5027259;28;20065;-77
2023/06/21 05:11:30;;;;;;;11.02;6.82;;;20.80;99.90;;;;;;5037526;28;20052;-78
2023/06/21 05:13:55;;;;;;;11.45;7.63;;;20.70;99.90;;;;;;5046952;28;20049;-77
2023/06/21 05:16:21;;;;;;;12.00;7.80;;;20.70;99.90;;;;;;5048601;28;20063;-78
2023/06/21 05:18:47;;;;;;;10.82;7.53;;;20.80;99.90;;;;;;5010121;28;20041;-80
2023/06/21 05:21:12;;;;;;;11.93;7.40;;;20.70;99.90;;;;;;5030834;28;20481;-77
2023/06/21 05:23:38;;;;;;;10.07;7.07;;;20.70;99.90;;;;;;5038346;28;20131;-77
2023/06/21 05:26:04;;;;;;;13.77;6.97;;;20.80;99.90;;;;;;5043054;28;20037;-78
2023/06/21 05:28:30;;;;;;;9.18;7.28;;;20.90;99.90;;;;;;5055608;28;20055;-77
2023/06/21 05:30:56;;;;;;;11.60;7.60;;;20.80;99.90;;;;;;5044996;28;20190;-77
2023/06/21 05:33:21;;;;;;;15.15;7.20;;;20.90;99.90;;;;;;5042419;28;20122;-78
2023/06/21 05:35:47;;;;;;;9.73;7.47;;;20.90;99.90;;;;;;5055835;28;20045;-78
2023/06/21 05:38:16;;;;;;;15.23;6.72;;;20.90;99.90;;;;;;5021217;28;20124;-78
2023/06/21 05:40:41;;;;;;;10.23;7.47;;;20.90;99.90;;;;;;5058166;28;20488;-79
2023/06/21 05:43:07;;;;;;;13.02;7.70;;;21.00;99.90;;;;;;5047810;28;20041;-77
2023/06/21 05:45:33;;;;;;;13.00;6.88;;;21.00;99.90;;;;;;5039088;28;20122;-78
2023/06/21 05:48:00;;;;;;;13.27;8.13;;;21.00;99.90;;;;;;5033019;28;20055;-78
2023/06/21 05:50:30;;;;;;;12.82;6.57;;;21.10;99.90;;;;;;5032334;28;20496;-78
2023/06/21 05:52:56;;;;;;;15.68;7.22;;;21.10;99.90;;;;;;5033483;28;20045;-79
2023/06/21 05:55:22;;;;;;;12.70;6.85;;;21.10;99.90;;;;;;5033544;28;20564;-78
2023/06/21 05:57:48;;;;;;;12.20;7.60;;;21.20;99.90;;;;;;5017722;28;20132;-78
2023/06/21 06:00:14;;;;;;;11.40;7.57;;;21.20;99.90;;;;;;5035268;28;20075;-79
2023/06/21 06:02:40;;;;;;;11.02;7.78;;;21.20;99.90;;;;;;5042104;28;20053;-77
2023/06/21 06:05:06;;;;;;;10.20;6.72;;;21.10;99.90;;;;;;5030561;28;20049;-78
2023/06/21 06:07:32;;;;;;;12.55;7.57;;;21.20;99.90;;;;;;5040369;28;20056;-78
2023/06/21 06:09:57;;;;;;;10.43;7.13;;;21.20;99.90;;;;;;5023129;28;20048;-78
2023/06/21 06:12:23;;;;;;;11.10;7.18;;;21.20;99.90;;;;;;5034738;28;20386;-77
2023/06/21 06:14:50;;;;;;;8.40;6.28;;;21.20;99.90;;;;;;5053953;28;20091;-79
2023/06/21 06:17:16;;;;;;;10.48;7.32;;;21.30;99.90;;;;;;5029723;28;20126;-77
2023/06/21 06:19:42;;;;;;;13.38;7.15;;;21.30;99.90;;;;;;5056550;28;20069;-78
2023/06/21 06:22:08;;;;;;;11.48;6.57;;;21.30;99.90;;;;;;5041810;28;20075;-78
2023/06/21 06:24:33;;;;;;;10.18;6.82;;;21.20;99.90;;;;;;5028466;28;20045;-78
2023/06/21 06:26:59;;;;;;;7.68;6.80;;;21.20;99.90;;;;;;5054125;28;20048;-77
2023/06/21 06:29:25;;;;;;;7.75;6.53;;;21.20;99.90;;;;;;5050661;28;20436;-79
2023/06/21 06:31:51;;;;;;;12.50;6.50;;;21.20;99.90;;;;;;5049974;28;20143;-78
2023/06/21 06:34:17;;;;;;;11.02;7.00;;;21.30;99.90;;;;;;5050588;28;20044;-78
2023/06/21 06:36:43;;;;;;;13.93;7.25;;;21.40;99.90;;;;;;5044512;28;20041;-78
2023/06/21 06:39:09;;;;;;;9.85;6.38;;;21.40;99.90;;;;;;5026878;28;20112;-78
2023/06/21 06:41:35;;;;;;;10.68;7.03;;;21.40;99.90;;;;;;5039080;28;20048;-78
2023/06/21 06:44:01;;;;;;;9.90;6.72;;;21.40;99.90;;;;;;5050815;28;20049;-77
2023/06/21 06:46:26;;;;;;;8.52;6.13;;;21.40;99.90;;;;;;5034810;28;20065;-78
2023/06/21 06:48:52;;;;;;;7.25;5.78;;;21.50;99.90;;;;;;5042297;28;20497;-77
2023/06/21 06:51:18;;;;;;;9.68;6.88;;;21.60;99.90;;;;;;5033982;28;20052;-78
2023/06/21 06:53:44;;;;;;;11.77;6.18;;;21.70;99.90;;;;;;5051652;28;20055;-78
2023/06/21 06:56:09;;;;;;;11.00;6.50;;;21.70;99.90;;;;;;5045037;28;20045;-77
2023/06/21 06:58:35;;;;;;;8.00;6.32;;;21.80;99.90;;;;;;5035222;28;20044;-78
2023/06/21 07:01:03;;;;;;;7.88;6.43;;;21.80;99.90;;;;;;5031402;28;20422;-78
2023/06/21 07:03:29;;;;;;;9.45;6.60;;;21.80;99.90;;;;;;5051614;28;20056;-78
2023/06/21 07:05:56;;;;;;;11.93;5.80;;;21.80;99.90;;;;;;5048706;28;20678;-78
2023/06/21 07:08:21;;;;;;;8.50;6.45;;;21.80;99.90;;;;;;5048719;28;20052;-78
2023/06/21 07:10:47;;;;;;;8.40;6.78;;;21.80;99.90;;;;;;5049688;28;20081;-77
2023/06/21 07:13:13;;;;;;;11.45;5.75;;;21.70;99.90;;;;;;5042823;28;20682;-78
2023/06/21 07:15:39;;;;;;;8.77;6.05;;;21.70;99.90;;;;;;5037608;28;20700;-78
2023/06/21 07:18:04;;;;;;;6.72;5.55;;;21.70;99.90;;;;;;5008671;28;20037;-78
2023/06/21 07:20:31;;;;;;;12.75;5.88;;;21.70;99.90;;;;;;5043510;28;20064;-78
2023/06/21 07:22:57;;;;;;;7.30;5.53;;;21.80;99.90;;;;;;5025623;28;20365;-78
2023/06/21 07:25:22;;;;;;;10.40;6.03;;;21.90;99.90;;;;;;5029941;28;20055;-78
2023/06/21 07:27:49;;;;;;;6.88;5.13;;;21.90;99.90;;;;;;5047275;28;20480;-78
2023/06/21 07:30:16;;;;;;;7.03;5.20;;;21.90;99.90;;;;;;5007194;28;20075;-78
2023/06/21 07:32:42;;;;;;;6.97;5.27;;;21.90;99.90;;;;;;5027159;28;20063;-77
2023/06/21 07:35:08;;;;;;;8.77;5.70;;;22.00;99.90;;;;;;5025750;28;20107;-78
2023/06/21 07:37:34;;;;;;;8.82;5.13;;;22.00;99.90;;;;;;4989043;28;20042;-78
2023/06/21 07:40:00;;;;;;;7.97;5.25;;;22.10;99.90;;;;;;5049640;28;20051;-78
2023/06/21 07:42:26;;;;;;;7.57;5.20;;;22.10;99.90;;;;;;5048275;28;20753;-78
2023/06/21 07:44:53;;;;;;;5.32;4.47;;;22.10;99.90;;;;;;5032492;28;20049;-78
2023/06/21 07:47:19;;;;;;;6.87;5.27;;;22.10;99.90;;;;;;5039327;28;20462;-78
2023/06/21 07:49:45;;;;;;;11.10;5.30;;;22.10;99.90;;;;;;5027323;28;20140;-77
2023/06/21 07:52:11;;;;;;;8.70;5.40;;;22.10;99.90;;;;;;5020286;28;20076;-78
2023/06/21 07:54:37;;;;;;;6.57;4.93;;;22.10;99.90;;;;;;5049828;28;20060;-78
2023/06/21 07:57:03;;;;;;;6.20;4.97;;;22.20;99.90;;;;;;5048015;28;20122;-78
2023/06/21 07:59:30;;;;;;;7.50;4.68;;;22.20;99.90;;;;;;5029418;28;20418;-78
2023/06/21 08:01:56;;;;;;;7.10;5.47;;;22.20;99.90;;;;;;5034098;28;20103;-78
2023/06/21 08:04:22;;;;;;;8.73;4.82;;;22.20;99.90;;;;;;5046822;28;20049;-78
2023/06/21 08:06:48;;;;;;;6.38;4.35;;;22.20;99.90;;;;;;5025848;28;20052;-78
2023/06/21 08:09:14;;;;;;;6.38;4.30;;;22.20;99.90;;;;;;5052326;28;20134;-77
2023/06/21 08:11:40;;;;;;;6.20;4.78;;;22.30;99.90;;;;;;5013666;28;21712;-78
2023/06/21 08:14:06;;;;;;;10.25;4.88;;;22.40;99.90;;;;;;5021507;28;20099;-78
2023/06/21 08:16:31;;;;;;;7.22;4.65;;;22.40;99.90;;;;;;5044487;28;20041;-78
2023/06/21 08:18:57;;;;;;;8.88;4.85;;;22.40;99.90;;;;;;5022218;28;20049;-78
2023/06/21 08:21:23;;;;;;;6.43;4.40;;;22.40;99.90;;;;;;5024562;28;20107;-78
2023/06/21 08:23:48;;;;;;;5.65;4.18;;;22.50;99.90;;;;;;5049586;28;20131;-78
2023/06/21 08:26:14;;;;;;;6.88;4.28;;;22.60;99.90;;;;;;5047055;28;20587;-78
2023/06/21 08:28:40;;;;;;;7.00;4.07;;;22.60;99.90;;;;;;5038383;28;20057;-78
2023/06/21 08:31:06;;;;;;;6.60;4.47;;;22.50;99.90;;;;;;5028722;28;20041;-77
2023/06/21 08:33:31;;;;;;;7.72;4.25;;;22.60;99.90;;;;;;5015574;28;20378;-78
2023/06/21 08:35:57;;;;;;;4.45;3.53;;;22.70;99.90;;;;;;5063354;28;20045;-78
2023/06/21 08:38:23;;;;;;;6.13;3.85;;;22.70;99.90;;;;;;5030476;28;20042;-77
2023/06/21 08:40:49;;;;;;;4.82;3.97;;;22.70;99.90;;;;;;5028676;28;20081;-77
2023/06/21 08:43:14;;;;;;;5.95;4.95;;;22.80;99.90;;;;;;5032434;28;20034;-77
2023/06/21 08:45:40;;;;;;;7.85;4.45;;;22.80;99.90;;;;;;5014936;28;20088;-78
2023/06/21 08:48:06;;;;;;;5.53;3.92;;;22.90;99.90;;;;;;5043446;28;20120;-78
2023/06/21 08:50:34;;;;;;;5.20;3.65;;;23.00;99.90;;;;;;5045697;28;20116;-77
2023/06/21 08:53:01;;;;;;;5.57;4.10;;;22.90;99.90;;;;;;5025226;28;20107;-82
2023/06/21 08:55:28;;;;;;;6.20;3.90;;;22.90;99.90;;;;;;5022702;28;20497;-82
2023/06/21 08:58:05;;;;;;;6.63;4.07;;;23.10;99.90;;;;;;5018562;28;20060;-81
2023/06/21 09:00:34;;;;;;;5.78;4.05;;;23.30;99.90;;;;;;5016816;28;20041;-84
2023/06/21 09:03:07;;;;;;;8.05;4.07;;;23.40;99.90;;;;;;5029796;28;20494;-83
2023/06/21 09:05:42;;;;;;;5.20;4.13;;;23.40;99.90;;;;;;5037578;28;20049;-84
2023/06/21 09:08:08;;;;;;;5.35;3.50;;;23.50;99.90;;;;;;5026936;28;20071;-84
2023/06/21 09:10:36;;;;;;;4.15;3.33;;;23.60;99.90;;;;;;5016733;28;20048;-85
2023/06/21 09:13:02;;;;;;;6.50;4.03;;;23.60;99.90;;;;;;5023810;28;20048;-84
2023/06/21 09:15:28;;;;;;;6.13;3.60;;;23.60;99.90;;;;;;5023959;28;20425;-84
2023/06/21 09:17:55;;;;;;;6.93;3.75;;;23.60;99.90;;;;;;5008906;28;20041;-84
2023/06/21 09:20:24;;;;;;;7.10;3.60;;;23.70;99.90;;;;;;5029502;28;20041;-84
2023/06/21 09:22:49;;;;;;;6.28;4.20;;;23.80;99.90;;;;;;5039696;28;20063;-84
2023/06/21 09:25:15;;;;;;;5.47;4.00;;;23.80;99.90;;;;;;5042621;28;20045;-84
2023/06/21 09:27:41;;;;;;;6.00;4.65;;;23.80;99.90;;;;;;5030984;28;20079;-85
2023/06/21 09:30:07;;;;;;;6.53;4.78;;;23.80;99.90;;;;;;4999218;28;20576;-85
2023/06/21 09:32:33;;;;;;;4.45;3.90;;;23.80;99.90;;;;;;5008462;28;20041;-84
2023/06/21 09:34:59;;;;;;;5.78;4.15;;;23.90;99.90;;;;;;5017292;28;20700;-85
2023/06/21 09:37:34;;;;;;;5.32;4.03;;;24.00;99.90;;;;;;5025054;28;20041;-85
2023/06/21 09:40:01;;;;;;;5.85;4.82;;;24.00;99.90;;;;;;5012503;28;20381;-85
2023/06/21 09:42:28;;;;;;;7.32;4.78;;;24.10;99.90;;;;;;5000099;28;20045;-84
2023/06/21 09:44:53;;;;;;;5.85;3.90;;;24.10;99.90;;;;;;5029114;28;20053;-85
2023/06/21 09:47:20;;;;;;;6.05;4.63;;;24.10;99.90;;;;;;5010016;28;20098;-85
2023/06/21 09:49:46;;;;;;;5.93;4.15;;;24.00;99.90;;;;;;5008621;28;20524;-85
2023/06/21 09:52:17;;;;;;;5.95;4.38;;;24.10;99.90;;;;;;5031097;28;20037;-85
2023/06/21 09:54:43;;;;;;;4.55;4.13;;;24.20;99.90;;;;;;5009094;28;20455;-84
2023/06/21 09:57:09;;;;;;;6.03;4.70;;;24.10;99.90;;;;;;5035022;28;20064;-84
2023/06/21 09:59:38;;;;;;;6.43;4.90;;;24.10;99.90;;;;;;5020586;28;20041;-85
2023/06/21 10:02:07;;;;;;;5.03;4.15;;;24.10;99.90;;;;;;5017107;28;20037;-84
2023/06/21 10:04:44;;;;;;;6.68;4.63;;;24.00;99.90;;;;;;5002281;28;20072;-85
2023/06/21 10:07:12;;;;;;;6.65;4.57;;;24.10;99.90;;;;;;5050835;28;20048;-85
2023/06/21 10:09:38;;;;;;;6.65;4.72;;;24.10;99.90;;;;;;5023434;28;20056;-84
2023/06/21 10:12:05;;;;;;;9.32;4.63;;;24.20;99.90;;;;;;5047103;28;20045;-84
2023/06/21 10:14:31;;;;;;;6.13;5.00;;;24.30;99.90;;;;;;5018168;28;20816;-85
2023/06/21 10:16:56;;;;;;;6.82;5.00;;;24.30;99.90;;;;;;5035777;28;20041;-84
2023/06/21 10:19:26;;;;;;;5.85;4.35;;;24.30;99.90;;;;;;5023946;28;20458;-85
2023/06/21 10:22:08;;;;;;;6.13;5.07;;;24.30;99.90;;;;;;5005570;28;20048;-85
2023/06/21 10:24:42;;;;;;;6.00;4.82;;;24.50;99.90;;;;;;5051008;28;20076;-84
2023/06/21 10:27:08;;;;;;;8.57;4.72;;;24.60;99.90;;;;;;5021825;28;20144;-85
2023/06/21 10:29:34;;;;;;;5.88;4.20;;;24.70;99.80;;;;;;5051078;28;20084;-84
2023/06/21 10:32:00;;;;;;;6.22;5.10;;;24.70;99.70;;;;;;5052688;28;20076;-84
2023/06/21 10:34:27;;;;;;;6.65;5.03;;;24.70;99.20;;;;;;5044332;28;20347;-85
2023/06/21 10:37:02;;;;;;;9.15;5.20;;;24.70;99.40;;;;;;5020933;28;20425;-85
2023/06/21 10:39:27;;;;;;;5.75;4.43;;;24.80;99.30;;;;;;5034294;28;20044;-85
2023/06/21 10:41:53;;;;;;;5.57;5.03;;;24.80;99.30;;;;;;5030263;28;20373;-85
2023/06/21 10:44:19;;;;;;;5.43;4.53;;;24.80;99.30;;;;;;5033542;28;21083;-84
2023/06/21 10:46:45;;;;;;;7.00;5.22;;;25.00;99.30;;;;;;5049706;28;20053;-85
2023/06/21 10:49:11;;;;;;;7.13;4.57;;;24.80;98.70;;;;;;5037852;28;20453;-85
2023/06/21 10:51:40;;;;;;;6.25;5.03;;;24.80;98.80;;;;;;5052953;28;20068;-84
2023/06/21 10:54:25;;;;;;;5.93;5.15;;;24.90;98.90;;;;;;4996562;28;20143;-81
2023/06/21 10:56:51;;;;;;;5.90;4.25;;;24.90;98.60;;;;;;5030830;28;20037;-84
2023/06/21 10:59:24;;;;;;;5.72;3.83;;;25.00;98.70;;;;;;5030766;28;20156;-84
2023/06/21 11:01:50;;;;;;;6.53;4.10;;;25.10;96.90;;;;;;5025464;28;20037;-84
2023/06/21 11:04:16;;;;;;;7.05;4.70;;;25.10;97.70;;;;;;5033638;28;20474;-84
2023/06/21 11:06:43;;;;;;;6.93;4.45;;;25.20;97.80;;;;;;5020268;28;20116;-85
2023/06/21 11:09:10;;;;;;;5.95;5.03;;;25.30;98.40;;;;;;5034604;28;20040;-85
2023/06/21 11:11:37;;;;;;;7.07;4.68;;;25.30;98.10;;;;;;5032193;28;20047;-85
2023/06/21 11:14:04;;;;;;;7.18;4.85;;;25.00;97.80;;;;;;5046715;28;20161;-85
2023/06/21 11:16:34;;;;;;;8.73;5.25;;;25.00;98.30;;;;;;4993486;28;20237;-85
2023/06/21 11:19:07;;;;;;;4.25;3.75;;;25.00;98.60;;;;;;5018450;28;20041;-85
2023/06/21 11:21:51;;;;;;;12.93;9.82;;;25.00;96.40;;;;;;5004267;28;20745;-86
2023/06/21 11:24:19;;;;;;;9.27;8.27;;;25.10;97.50;;;;;;5025512;28;20037;-85
2023/06/21 11:26:57;;;;;;;9.50;6.82;;;25.10;97.90;;;;;;5022937;28;20049;-85
2023/06/21 11:29:41;;;;;;;12.63;9.68;;;25.00;98.30;;;;;;5017446;28;20386;-85
2023/06/21 11:32:18;;;;;;;8.77;7.32;;;25.10;98.50;;;;;;5011730;28;20045;-84
2023/06/21 11:34:53;;;;;;;12.25;8.15;;;25.20;98.60;;;;;;5023248;28;20054;-85
2023/06/21 11:37:52;;;;;;;7.03;6.15;;;25.40;98.60;;;;;;5042305;28;20032;-87
2023/06/21 11:40:28;;;;;;;6.82;5.15;;;25.60;97.60;;;;;;5007739;28;20051;-84
2023/06/21 11:42:54;;;;;;;6.60;5.22;;;25.70;97.60;;;;;;5018084;28;20057;-83
2023/06/21 11:45:32;;;;;;;6.53;4.80;;;25.70;96.80;;;;;;5029127;28;20135;-82
2023/06/21 11:48:06;;;;;;;5.97;4.97;;;25.80;96.80;;;;;;5034760;28;20038;-84
2023/06/21 11:50:36;;;;;;;5.55;4.95;;;25.90;96.90;;;;;;5033714;28;20075;-84
2023/06/21 11:53:23;;;;;;;8.57;4.82;;;26.00;96.60;;;;;;5029445;28;20045;-84
2023/06/21 11:55:54;;;;;;;7.70;4.53;;;26.00;95.90;;;;;;5012455;28;20045;-83
2023/06/21 11:58:20;;;;;;;6.65;5.35;;;26.10;96.00;;;;;;5021500;28;20074;-84
2023/06/21 12:00:46;;;;;;;5.95;4.85;;;26.00;95.60;;;;;;5033638;28;20096;-84
2023/06/21 12:03:13;;;;;;;7.95;4.75;;;25.90;96.10;;;;;;5013416;28;20064;-84
2023/06/21 12:05:43;;;;;;;5.47;4.97;;;26.00;96.50;;;;;;5042382;28;20159;-83
2023/06/21 12:08:09;;;;;;;7.68;5.40;;;26.00;96.00;;;;;;5028456;28;20773;-84
2023/06/21 12:10:35;;;;;;;6.40;5.18;;;26.10;96.60;;;;;;5010270;28;20041;-83
2023/06/21 12:13:08;;;;;;;5.63;5.00;;;26.10;96.10;;;;;;5055794;28;20120;-84
2023/06/21 12:15:33;;;;;;;8.35;4.97;;;26.10;96.50;;;;;;5037485;28;20114;-83
2023/06/21 12:17:59;;;;;;;7.40;4.68;;;26.10;95.80;;;;;;5031766;28;20423;-83
2023/06/21 12:20:25;;;;;;;6.53;4.90;;;26.40;95.20;;;;;;5049728;28;20080;-83
2023/06/21 12:22:51;;;;;;;6.43;5.10;;;26.10;95.00;;;;;;5056269;28;20080;-85
2023/06/21 12:25:16;;;;;;;7.10;5.20;;;26.00;95.00;;;;;;5027836;28;20063;-84
2023/06/21 12:28:02;;;;;;;8.63;5.25;;;26.00;95.30;;;;;;5008357;28;20454;-84
2023/06/21 12:30:28;;;;;;;6.57;5.38;;;26.00;95.80;;;;;;5021314;28;20556;-83
2023/06/21 12:32:55;;;;;;;6.30;5.22;;;26.30;95.70;;;;;;5045030;28;20041;-81
2023/06/21 12:35:21;;;;;;;7.07;5.45;;;26.30;95.50;;;;;;5036787;28;20045;-83
2023/06/21 12:37:47;;;;;;;6.10;5.05;;;26.40;95.30;;;;;;5047134;28;20037;-82
2023/06/21 12:40:17;;;;;;;7.70;5.47;;;26.50;95.30;;;;;;5047268;28;20045;-83
2023/06/21 12:42:46;;;;;;;6.47;5.63;;;26.70;95.10;;;;;;5051484;28;20041;-82
2023/06/21 12:45:29;;;;;;;;;;;;;;;;;;;;;
2023/06/21 12:47:57;;;;;;;6.88;5.45;;;26.80;94.40;;;;;;5023806;28;20044;-83